sensor_id;sensor_type;location;lat;lon;timestamp;P1;durP1;ratioP1;P2;durP2;ratioP2
25913;SDS011;13718;50.922;5.346;2023-07-24T00:01:54;29.95;;;12.32;;
25913;SDS011;13718;50.922;5.346;2023-07-24T00:04:19;28.65;;;11.20;;
25913;SDS011;13718;50.922;5.346;2023-07-24T00:06:45;26.85;;;12.35;;
25913;SDS011;13718;50.922;5.346;2023-07-24T00:09:10;31.27;;;12.13;;
25913;SDS011;13718;50.922;5.346;2023-07-24T00:11:36;31.92;;;12.20;;
25913;SDS011;13718;50.922;5.346;2023-07-24T00:14:01;27.70;;;12.63;;
25913;SDS011;13718;50.922;5.346;2023-07-24T00:16:27;29.10;;;12.35;;
25913;SDS011;13718;50.922;5.346;2023-07-24T00:18:52;31.48;;;12.52;;
25913;SDS011;13718;50.922;5.346;2023-07-24T00:21:18;28.15;;;12.75;;
25913;SDS011;13718;50.922;5.346;2023-07-24T00:23:43;27.70;;;12.60;;
25913;SDS011;13718;50.922;5.346;2023-07-24T00:26:09;28.67;;;12.55;;
25913;SDS011;13718;50.922;5.346;2023-07-24T00:28:34;30.35;;;12.77;;
25913;SDS011;13718;50.922;5.346;2023-07-24T00:31:00;29.30;;;13.50;;
25913;SDS011;13718;50.922;5.346;2023-07-24T00:33:26;32.17;;;14.50;;
25913;SDS011;13718;50.922;5.346;2023-07-24T00:35:54;24.40;;;12.48;;
25913;SDS011;13718;50.922;5.346;2023-07-24T00:38:21;28.23;;;11.55;;
25913;SDS011;13718;50.922;5.346;2023-07-24T00:40:47;27.15;;;12.10;;
25913;SDS011;13718;50.922;5.346;2023-07-24T00:43:12;25.98;;;11.15;;
25913;SDS011;13718;50.922;5.346;2023-07-24T00:45:38;29.48;;;12.07;;
25913;SDS011;13718;50.922;5.346;2023-07-24T00:48:03;35.17;;;11.98;;
25913;SDS011;13718;50.922;5.346;2023-07-24T00:50:29;25.38;;;10.63;;
25913;SDS011;13718;50.922;5.346;2023-07-24T00:52:55;26.55;;;11.10;;
25913;SDS011;13718;50.922;5.346;2023-07-24T00:55:21;24.83;;;10.63;;
25913;SDS011;13718;50.922;5.346;2023-07-24T00:57:47;26.30;;;10.65;;
25913;SDS011;13718;50.922;5.346;2023-07-24T01:00:12;25.67;;;10.70;;
25913;SDS011;13718;50.922;5.346;2023-07-24T01:02:38;23.13;;;10.27;;
25913;SDS011;13718;50.922;5.346;2023-07-24T01:05:04;20.95;;;9.77;;
25913;SDS011;13718;50.922;5.346;2023-07-24T01:07:31;23.65;;;10.93;;
25913;SDS011;13718;50.922;5.346;2023-07-24T01:09:56;24.77;;;10.25;;
25913;SDS011;13718;50.922;5.346;2023-07-24T01:14:58;23.33;;;10.48;;
25913;SDS011;13718;50.922;5.346;2023-07-24T01:17:32;26.38;;;10.25;;
25913;SDS011;13718;50.922;5.346;2023-07-24T01:20:04;27.93;;;10.60;;
25913;SDS011;13718;50.922;5.346;2023-07-24T01:25:32;30.42;;;10.82;;
25913;SDS011;13718;50.922;5.346;2023-07-24T01:28:06;33.33;;;10.52;;
25913;SDS011;13718;50.922;5.346;2023-07-24T01:30:32;22.33;;;9.95;;
25913;SDS011;13718;50.922;5.346;2023-07-24T01:32:58;20.30;;;9.70;;
25913;SDS011;13718;50.922;5.346;2023-07-24T01:35:23;23.35;;;9.68;;
25913;SDS011;13718;50.922;5.346;2023-07-24T01:37:50;26.80;;;10.73;;
25913;SDS011;13718;50.922;5.346;2023-07-24T01:40:16;24.13;;;10.07;;
25913;SDS011;13718;50.922;5.346;2023-07-24T01:42:43;27.08;;;10.13;;
25913;SDS011;13718;50.922;5.346;2023-07-24T01:45:09;28.88;;;10.27;;
25913;SDS011;13718;50.922;5.346;2023-07-24T01:47:36;23.27;;;10.38;;
25913;SDS011;13718;50.922;5.346;2023-07-24T01:50:01;27.50;;;10.50;;
25913;SDS011;13718;50.922;5.346;2023-07-24T01:52:27;25.40;;;9.75;;
25913;SDS011;13718;50.922;5.346;2023-07-24T01:54:53;24.17;;;10.43;;
25913;SDS011;13718;50.922;5.346;2023-07-24T01:57:18;28.90;;;11.05;;
25913;SDS011;13718;50.922;5.346;2023-07-24T01:59:44;33.50;;;10.38;;
25913;SDS011;13718;50.922;5.346;2023-07-24T02:02:10;26.40;;;9.60;;
25913;SDS011;13718;50.922;5.346;2023-07-24T02:04:35;28.20;;;10.80;;
25913;SDS011;13718;50.922;5.346;2023-07-24T02:07:01;27.77;;;10.07;;
25913;SDS011;13718;50.922;5.346;2023-07-24T02:09:26;29.70;;;10.63;;
25913;SDS011;13718;50.922;5.346;2023-07-24T02:11:52;29.83;;;11.07;;
25913;SDS011;13718;50.922;5.346;2023-07-24T02:14:18;24.52;;;10.38;;
25913;SDS011;13718;50.922;5.346;2023-07-24T02:16:43;29.75;;;11.20;;
25913;SDS011;13718;50.922;5.346;2023-07-24T02:19:09;29.23;;;11.00;;
25913;SDS011;13718;50.922;5.346;2023-07-24T02:21:34;29.95;;;10.57;;
25913;SDS011;13718;50.922;5.346;2023-07-24T02:24:00;28.13;;;10.77;;
25913;SDS011;13718;50.922;5.346;2023-07-24T02:26:25;33.17;;;11.38;;
25913;SDS011;13718;50.922;5.346;2023-07-24T02:28:51;28.48;;;10.88;;
25913;SDS011;13718;50.922;5.346;2023-07-24T02:31:17;25.80;;;11.57;;
25913;SDS011;13718;50.922;5.346;2023-07-24T02:33:42;36.83;;;11.52;;
25913;SDS011;13718;50.922;5.346;2023-07-24T02:36:08;23.65;;;10.20;;
25913;SDS011;13718;50.922;5.346;2023-07-24T02:38:33;28.83;;;10.93;;
25913;SDS011;13718;50.922;5.346;2023-07-24T02:40:59;25.08;;;10.70;;
25913;SDS011;13718;50.922;5.346;2023-07-24T02:43:24;27.83;;;10.80;;
25913;SDS011;13718;50.922;5.346;2023-07-24T02:45:50;21.13;;;10.68;;
25913;SDS011;13718;50.922;5.346;2023-07-24T02:48:16;31.30;;;10.85;;
25913;SDS011;13718;50.922;5.346;2023-07-24T02:50:41;27.42;;;11.13;;
25913;SDS011;13718;50.922;5.346;2023-07-24T02:53:07;26.88;;;11.25;;
25913;SDS011;13718;50.922;5.346;2023-07-24T02:55:32;30.23;;;12.05;;
25913;SDS011;13718;50.922;5.346;2023-07-24T02:57:58;28.92;;;11.63;;
25913;SDS011;13718;50.922;5.346;2023-07-24T03:00:24;29.42;;;12.35;;
25913;SDS011;13718;50.922;5.346;2023-07-24T03:02:50;25.55;;;11.35;;
25913;SDS011;13718;50.922;5.346;2023-07-24T03:05:16;31.38;;;11.55;;
25913;SDS011;13718;50.922;5.346;2023-07-24T03:07:41;34.28;;;12.52;;
25913;SDS011;13718;50.922;5.346;2023-07-24T03:10:07;34.80;;;11.55;;
25913;SDS011;13718;50.922;5.346;2023-07-24T03:12:33;26.10;;;11.02;;
25913;SDS011;13718;50.922;5.346;2023-07-24T03:14:58;27.25;;;10.90;;
25913;SDS011;13718;50.922;5.346;2023-07-24T03:17:24;29.35;;;11.02;;
25913;SDS011;13718;50.922;5.346;2023-07-24T03:19:49;29.35;;;11.82;;
25913;SDS011;13718;50.922;5.346;2023-07-24T03:22:15;23.88;;;10.60;;
25913;SDS011;13718;50.922;5.346;2023-07-24T03:24:40;28.48;;;11.40;;
25913;SDS011;13718;50.922;5.346;2023-07-24T03:27:06;26.73;;;11.30;;
25913;SDS011;13718;50.922;5.346;2023-07-24T03:29:32;29.65;;;11.55;;
25913;SDS011;13718;50.922;5.346;2023-07-24T03:31:57;30.63;;;10.65;;
25913;SDS011;13718;50.922;5.346;2023-07-24T03:34:23;25.48;;;11.50;;
25913;SDS011;13718;50.922;5.346;2023-07-24T03:36:49;28.10;;;11.30;;
25913;SDS011;13718;50.922;5.346;2023-07-24T03:39:14;35.13;;;12.05;;
25913;SDS011;13718;50.922;5.346;2023-07-24T03:41:41;28.48;;;11.85;;
25913;SDS011;13718;50.922;5.346;2023-07-24T03:44:07;31.33;;;11.65;;
25913;SDS011;13718;50.922;5.346;2023-07-24T03:46:33;31.40;;;11.25;;
25913;SDS011;13718;50.922;5.346;2023-07-24T03:48:59;24.25;;;10.98;;
25913;SDS011;13718;50.922;5.346;2023-07-24T03:51:25;23.75;;;10.57;;
25913;SDS011;13718;50.922;5.346;2023-07-24T03:53:50;25.38;;;11.20;;
25913;SDS011;13718;50.922;5.346;2023-07-24T03:56:16;24.10;;;10.70;;
25913;SDS011;13718;50.922;5.346;2023-07-24T03:58:41;30.95;;;11.57;;
25913;SDS011;13718;50.922;5.346;2023-07-24T04:01:10;25.30;;;10.40;;
25913;SDS011;13718;50.922;5.346;2023-07-24T04:03:35;28.73;;;12.07;;
25913;SDS011;13718;50.922;5.346;2023-07-24T04:06:01;27.13;;;10.40;;
25913;SDS011;13718;50.922;5.346;2023-07-24T04:08:27;26.55;;;11.00;;
25913;SDS011;13718;50.922;5.346;2023-07-24T04:10:52;29.55;;;11.43;;
25913;SDS011;13718;50.922;5.346;2023-07-24T04:13:18;24.75;;;10.57;;
25913;SDS011;13718;50.922;5.346;2023-07-24T04:15:43;23.15;;;10.88;;
25913;SDS011;13718;50.922;5.346;2023-07-24T04:18:09;27.90;;;11.10;;
25913;SDS011;13718;50.922;5.346;2023-07-24T04:20:35;31.48;;;11.35;;
25913;SDS011;13718;50.922;5.346;2023-07-24T04:23:01;26.50;;;11.35;;
25913;SDS011;13718;50.922;5.346;2023-07-24T04:25:26;25.65;;;10.82;;
25913;SDS011;13718;50.922;5.346;2023-07-24T04:27:52;27.92;;;11.23;;
25913;SDS011;13718;50.922;5.346;2023-07-24T04:30:17;25.52;;;10.65;;
25913;SDS011;13718;50.922;5.346;2023-07-24T04:32:43;30.52;;;11.10;;
25913;SDS011;13718;50.922;5.346;2023-07-24T04:35:08;27.60;;;11.73;;
25913;SDS011;13718;50.922;5.346;2023-07-24T04:37:34;25.42;;;10.68;;
25913;SDS011;13718;50.922;5.346;2023-07-24T04:40:00;23.95;;;10.93;;
25913;SDS011;13718;50.922;5.346;2023-07-24T04:42:25;24.98;;;10.52;;
25913;SDS011;13718;50.922;5.346;2023-07-24T04:44:51;25.73;;;10.55;;
25913;SDS011;13718;50.922;5.346;2023-07-24T04:47:16;19.65;;;9.70;;
25913;SDS011;13718;50.922;5.346;2023-07-24T04:49:42;21.88;;;10.82;;
25913;SDS011;13718;50.922;5.346;2023-07-24T04:52:08;21.55;;;9.85;;
25913;SDS011;13718;50.922;5.346;2023-07-24T04:54:33;20.73;;;9.60;;
25913;SDS011;13718;50.922;5.346;2023-07-24T04:56:59;20.75;;;9.50;;
25913;SDS011;13718;50.922;5.346;2023-07-24T04:59:24;21.48;;;8.98;;
25913;SDS011;13718;50.922;5.346;2023-07-24T05:01:50;29.45;;;10.25;;
25913;SDS011;13718;50.922;5.346;2023-07-24T05:04:15;18.30;;;8.43;;
25913;SDS011;13718;50.922;5.346;2023-07-24T05:06:41;18.45;;;8.25;;
25913;SDS011;13718;50.922;5.346;2023-07-24T05:09:07;18.33;;;7.60;;
25913;SDS011;13718;50.922;5.346;2023-07-24T05:11:32;15.73;;;6.78;;
25913;SDS011;13718;50.922;5.346;2023-07-24T05:13:58;14.25;;;6.60;;
25913;SDS011;13718;50.922;5.346;2023-07-24T05:16:23;16.20;;;6.68;;
25913;SDS011;13718;50.922;5.346;2023-07-24T05:18:49;17.00;;;6.60;;
25913;SDS011;13718;50.922;5.346;2023-07-24T05:21:14;13.43;;;6.55;;
25913;SDS011;13718;50.922;5.346;2023-07-24T05:23:40;20.17;;;6.15;;
25913;SDS011;13718;50.922;5.346;2023-07-24T05:26:05;15.10;;;6.53;;
25913;SDS011;13718;50.922;5.346;2023-07-24T05:28:31;11.25;;;4.63;;
25913;SDS011;13718;50.922;5.346;2023-07-24T05:31:04;18.13;;;6.13;;
25913;SDS011;13718;50.922;5.346;2023-07-24T05:33:30;11.80;;;4.95;;
25913;SDS011;13718;50.922;5.346;2023-07-24T05:36:02;12.07;;;5.78;;
25913;SDS011;13718;50.922;5.346;2023-07-24T05:38:29;14.05;;;5.82;;
25913;SDS011;13718;50.922;5.346;2023-07-24T05:40:55;12.77;;;5.85;;
25913;SDS011;13718;50.922;5.346;2023-07-24T05:43:22;15.63;;;6.70;;
25913;SDS011;13718;50.922;5.346;2023-07-24T05:45:47;16.60;;;6.45;;
25913;SDS011;13718;50.922;5.346;2023-07-24T05:48:13;15.00;;;6.28;;
25913;SDS011;13718;50.922;5.346;2023-07-24T05:50:38;13.73;;;5.88;;
25913;SDS011;13718;50.922;5.346;2023-07-24T05:53:06;14.20;;;5.45;;
25913;SDS011;13718;50.922;5.346;2023-07-24T05:55:31;10.70;;;4.90;;
25913;SDS011;13718;50.922;5.346;2023-07-24T05:57:57;7.32;;;3.90;;
25913;SDS011;13718;50.922;5.346;2023-07-24T06:00:22;10.25;;;4.72;;
25913;SDS011;13718;50.922;5.346;2023-07-24T06:02:48;10.98;;;4.45;;
25913;SDS011;13718;50.922;5.346;2023-07-24T06:05:13;8.30;;;3.80;;
25913;SDS011;13718;50.922;5.346;2023-07-24T06:07:39;8.80;;;3.88;;
25913;SDS011;13718;50.922;5.346;2023-07-24T06:10:04;7.95;;;3.92;;
25913;SDS011;13718;50.922;5.346;2023-07-24T06:12:30;7.05;;;3.90;;
25913;SDS011;13718;50.922;5.346;2023-07-24T06:14:56;8.73;;;4.15;;
25913;SDS011;13718;50.922;5.346;2023-07-24T06:17:21;10.45;;;4.45;;
25913;SDS011;13718;50.922;5.346;2023-07-24T06:19:47;15.18;;;5.28;;
25913;SDS011;13718;50.922;5.346;2023-07-24T06:22:12;12.43;;;5.47;;
25913;SDS011;13718;50.922;5.346;2023-07-24T06:24:38;11.70;;;5.45;;
25913;SDS011;13718;50.922;5.346;2023-07-24T06:27:04;11.73;;;5.43;;
25913;SDS011;13718;50.922;5.346;2023-07-24T06:29:31;10.57;;;4.18;;
25913;SDS011;13718;50.922;5.346;2023-07-24T06:31:57;9.77;;;4.47;;
25913;SDS011;13718;50.922;5.346;2023-07-24T06:34:23;6.80;;;3.97;;
25913;SDS011;13718;50.922;5.346;2023-07-24T06:36:48;9.88;;;3.70;;
25913;SDS011;13718;50.922;5.346;2023-07-24T06:39:14;10.00;;;3.90;;
25913;SDS011;13718;50.922;5.346;2023-07-24T06:41:40;7.50;;;4.28;;
25913;SDS011;13718;50.922;5.346;2023-07-24T06:44:06;10.38;;;4.25;;
25913;SDS011;13718;50.922;5.346;2023-07-24T06:46:31;8.95;;;3.97;;
25913;SDS011;13718;50.922;5.346;2023-07-24T06:48:57;8.32;;;3.00;;
25913;SDS011;13718;50.922;5.346;2023-07-24T06:51:22;5.68;;;3.03;;
25913;SDS011;13718;50.922;5.346;2023-07-24T06:53:48;6.10;;;2.88;;
25913;SDS011;13718;50.922;5.346;2023-07-24T06:56:13;4.70;;;2.70;;
25913;SDS011;13718;50.922;5.346;2023-07-24T06:58:39;7.30;;;3.28;;
25913;SDS011;13718;50.922;5.346;2023-07-24T07:01:07;5.70;;;2.90;;
25913;SDS011;13718;50.922;5.346;2023-07-24T07:03:33;4.65;;;2.83;;
25913;SDS011;13718;50.922;5.346;2023-07-24T07:06:02;7.03;;;3.38;;
25913;SDS011;13718;50.922;5.346;2023-07-24T07:08:31;5.75;;;3.22;;
25913;SDS011;13718;50.922;5.346;2023-07-24T07:10:57;4.68;;;3.08;;
25913;SDS011;13718;50.922;5.346;2023-07-24T07:13:23;5.82;;;3.05;;
25913;SDS011;13718;50.922;5.346;2023-07-24T07:15:49;5.13;;;2.88;;
25913;SDS011;13718;50.922;5.346;2023-07-24T07:18:14;5.85;;;3.20;;
25913;SDS011;13718;50.922;5.346;2023-07-24T07:20:47;5.70;;;3.15;;
25913;SDS011;13718;50.922;5.346;2023-07-24T07:23:13;4.63;;;2.80;;
25913;SDS011;13718;50.922;5.346;2023-07-24T07:25:39;5.60;;;2.92;;
25913;SDS011;13718;50.922;5.346;2023-07-24T07:28:05;4.65;;;3.50;;
25913;SDS011;13718;50.922;5.346;2023-07-24T07:30:31;4.40;;;2.35;;
25913;SDS011;13718;50.922;5.346;2023-07-24T07:32:56;5.93;;;2.72;;
25913;SDS011;13718;50.922;5.346;2023-07-24T07:35:22;5.78;;;2.60;;
25913;SDS011;13718;50.922;5.346;2023-07-24T07:37:47;6.50;;;2.40;;
25913;SDS011;13718;50.922;5.346;2023-07-24T07:40:13;4.70;;;2.40;;
25913;SDS011;13718;50.922;5.346;2023-07-24T07:42:38;4.45;;;2.40;;
25913;SDS011;13718;50.922;5.346;2023-07-24T07:45:04;5.78;;;2.78;;
25913;SDS011;13718;50.922;5.346;2023-07-24T07:47:30;4.43;;;2.25;;
25913;SDS011;13718;50.922;5.346;2023-07-24T07:49:55;3.72;;;2.13;;
25913;SDS011;13718;50.922;5.346;2023-07-24T07:52:21;3.58;;;1.85;;
25913;SDS011;13718;50.922;5.346;2023-07-24T07:54:50;3.50;;;1.88;;
25913;SDS011;13718;50.922;5.346;2023-07-24T07:57:15;5.30;;;2.00;;
25913;SDS011;13718;50.922;5.346;2023-07-24T07:59:41;3.67;;;1.80;;
25913;SDS011;13718;50.922;5.346;2023-07-24T08:02:07;3.22;;;2.20;;
25913;SDS011;13718;50.922;5.346;2023-07-24T08:04:33;3.85;;;1.75;;
25913;SDS011;13718;50.922;5.346;2023-07-24T08:06:58;4.63;;;1.92;;
25913;SDS011;13718;50.922;5.346;2023-07-24T08:09:24;4.55;;;2.03;;
25913;SDS011;13718;50.922;5.346;2023-07-24T08:11:50;3.20;;;1.80;;
25913;SDS011;13718;50.922;5.346;2023-07-24T08:14:16;4.78;;;2.00;;
25913;SDS011;13718;50.922;5.346;2023-07-24T08:16:47;3.38;;;1.92;;
25913;SDS011;13718;50.922;5.346;2023-07-24T08:19:13;5.05;;;2.15;;
25913;SDS011;13718;50.922;5.346;2023-07-24T08:21:39;3.55;;;2.00;;
25913;SDS011;13718;50.922;5.346;2023-07-24T08:24:05;4.75;;;2.17;;
25913;SDS011;13718;50.922;5.346;2023-07-24T08:26:31;4.70;;;2.08;;
25913;SDS011;13718;50.922;5.346;2023-07-24T08:28:56;4.43;;;2.38;;
25913;SDS011;13718;50.922;5.346;2023-07-24T08:31:22;5.65;;;2.45;;
25913;SDS011;13718;50.922;5.346;2023-07-24T08:33:47;4.30;;;2.50;;
25913;SDS011;13718;50.922;5.346;2023-07-24T08:36:13;3.97;;;2.80;;
25913;SDS011;13718;50.922;5.346;2023-07-24T08:38:39;5.05;;;2.35;;
25913;SDS011;13718;50.922;5.346;2023-07-24T08:43:39;5.80;;;2.67;;
25913;SDS011;13718;50.922;5.346;2023-07-24T08:46:06;6.47;;;3.25;;
25913;SDS011;13718;50.922;5.346;2023-07-24T08:48:33;5.65;;;2.60;;
25913;SDS011;13718;50.922;5.346;2023-07-24T08:51:03;6.15;;;2.90;;
25913;SDS011;13718;50.922;5.346;2023-07-24T08:53:29;5.05;;;2.47;;
25913;SDS011;13718;50.922;5.346;2023-07-24T08:55:57;4.97;;;2.60;;
25913;SDS011;13718;50.922;5.346;2023-07-24T08:58:25;7.18;;;2.60;;
25913;SDS011;13718;50.922;5.346;2023-07-24T09:00:51;4.63;;;2.70;;
25913;SDS011;13718;50.922;5.346;2023-07-24T09:03:17;3.80;;;2.45;;
25913;SDS011;13718;50.922;5.346;2023-07-24T09:05:44;3.42;;;2.38;;
25913;SDS011;13718;50.922;5.346;2023-07-24T09:08:10;6.40;;;2.47;;
25913;SDS011;13718;50.922;5.346;2023-07-24T09:10:36;3.65;;;2.13;;
25913;SDS011;13718;50.922;5.346;2023-07-24T09:13:01;4.03;;;2.30;;
25913;SDS011;13718;50.922;5.346;2023-07-24T09:15:29;7.78;;;3.00;;
25913;SDS011;13718;50.922;5.346;2023-07-24T09:18:04;4.65;;;2.75;;
25913;SDS011;13718;50.922;5.346;2023-07-24T09:20:37;3.75;;;2.50;;
25913;SDS011;13718;50.922;5.346;2023-07-24T09:23:07;5.82;;;2.88;;
25913;SDS011;13718;50.922;5.346;2023-07-24T09:25:37;5.32;;;3.10;;
25913;SDS011;13718;50.922;5.346;2023-07-24T09:28:10;3.83;;;2.83;;
25913;SDS011;13718;50.922;5.346;2023-07-24T09:30:36;6.18;;;3.33;;
25913;SDS011;13718;50.922;5.346;2023-07-24T09:33:02;10.88;;;3.90;;
25913;SDS011;13718;50.922;5.346;2023-07-24T09:35:28;7.85;;;3.97;;
25913;SDS011;13718;50.922;5.346;2023-07-24T09:38:03;9.38;;;3.97;;
25913;SDS011;13718;50.922;5.346;2023-07-24T09:40:43;10.68;;;5.07;;
25913;SDS011;13718;50.922;5.346;2023-07-24T09:43:43;8.90;;;4.25;;
25913;SDS011;13718;50.922;5.346;2023-07-24T09:46:02;11.00;;;5.13;;
25913;SDS011;13718;50.922;5.346;2023-07-24T09:48:30;10.52;;;4.72;;
25913;SDS011;13718;50.922;5.346;2023-07-24T09:50:57;11.48;;;4.82;;
25913;SDS011;13718;50.922;5.346;2023-07-24T09:53:34;8.55;;;4.85;;
25913;SDS011;13718;50.922;5.346;2023-07-24T09:56:07;10.15;;;5.13;;
25913;SDS011;13718;50.922;5.346;2023-07-24T09:58:34;10.13;;;5.32;;
25913;SDS011;13718;50.922;5.346;2023-07-24T10:01:05;12.68;;;6.07;;
25913;SDS011;13718;50.922;5.346;2023-07-24T10:03:39;14.57;;;5.82;;
25913;SDS011;13718;50.922;5.346;2023-07-24T10:06:06;17.38;;;5.88;;
25913;SDS011;13718;50.922;5.346;2023-07-24T10:08:35;11.30;;;2.55;;
25913;SDS011;13718;50.922;5.346;2023-07-24T10:11:01;6.30;;;2.03;;
25913;SDS011;13718;50.922;5.346;2023-07-24T10:13:27;4.25;;;1.80;;
25913;SDS011;13718;50.922;5.346;2023-07-24T10:15:53;5.85;;;1.48;;
25913;SDS011;13718;50.922;5.346;2023-07-24T10:18:25;3.28;;;1.52;;
25913;SDS011;13718;50.922;5.346;2023-07-24T10:21:03;5.38;;;1.20;;
25913;SDS011;13718;50.922;5.346;2023-07-24T10:23:30;3.90;;;1.45;;
25913;SDS011;13718;50.922;5.346;2023-07-24T10:26:02;3.10;;;1.30;;
25913;SDS011;13718;50.922;5.346;2023-07-24T10:28:32;3.20;;;1.40;;
25913;SDS011;13718;50.922;5.346;2023-07-24T10:31:03;2.95;;;1.48;;
25913;SDS011;13718;50.922;5.346;2023-07-24T10:33:33;3.70;;;1.40;;
25913;SDS011;13718;50.922;5.346;2023-07-24T10:36:05;2.75;;;1.13;;
25913;SDS011;13718;50.922;5.346;2023-07-24T10:38:40;3.00;;;1.20;;
25913;SDS011;13718;50.922;5.346;2023-07-24T10:41:07;7.25;;;1.55;;
25913;SDS011;13718;50.922;5.346;2023-07-24T10:43:40;1.95;;;1.00;;
25913;SDS011;13718;50.922;5.346;2023-07-24T10:46:11;1.92;;;1.00;;
25913;SDS011;13718;50.922;5.346;2023-07-24T10:48:37;2.05;;;0.90;;
25913;SDS011;13718;50.922;5.346;2023-07-24T10:51:07;3.15;;;1.00;;
25913;SDS011;13718;50.922;5.346;2023-07-24T10:53:36;2.33;;;1.40;;
25913;SDS011;13718;50.922;5.346;2023-07-24T10:56:03;1.80;;;1.05;;
25913;SDS011;13718;50.922;5.346;2023-07-24T10:58:32;3.35;;;1.30;;
25913;SDS011;13718;50.922;5.346;2023-07-24T11:00:58;2.22;;;1.20;;
25913;SDS011;13718;50.922;5.346;2023-07-24T11:03:24;4.40;;;1.70;;
25913;SDS011;13718;50.922;5.346;2023-07-24T11:05:50;4.00;;;1.65;;
25913;SDS011;13718;50.922;5.346;2023-07-24T11:08:17;5.00;;;1.70;;
25913;SDS011;13718;50.922;5.346;2023-07-24T11:10:45;3.28;;;1.73;;
25913;SDS011;13718;50.922;5.346;2023-07-24T11:13:15;6.38;;;2.58;;
25913;SDS011;13718;50.922;5.346;2023-07-24T11:15:41;5.57;;;2.40;;
25913;SDS011;13718;50.922;5.346;2023-07-24T11:18:08;4.28;;;2.40;;
25913;SDS011;13718;50.922;5.346;2023-07-24T11:20:37;4.05;;;2.30;;
25913;SDS011;13718;50.922;5.346;2023-07-24T11:23:08;11.27;;;3.42;;
25913;SDS011;13718;50.922;5.346;2023-07-24T11:25:33;5.07;;;2.80;;
25913;SDS011;13718;50.922;5.346;2023-07-24T11:27:59;8.27;;;2.97;;
25913;SDS011;13718;50.922;5.346;2023-07-24T11:30:25;4.35;;;2.78;;
25913;SDS011;13718;50.922;5.346;2023-07-24T11:32:50;5.57;;;3.10;;
25913;SDS011;13718;50.922;5.346;2023-07-24T11:35:17;4.95;;;2.92;;
25913;SDS011;13718;50.922;5.346;2023-07-24T11:37:44;6.10;;;3.85;;
25913;SDS011;13718;50.922;5.346;2023-07-24T11:40:09;7.57;;;3.60;;
25913;SDS011;13718;50.922;5.346;2023-07-24T11:42:42;6.78;;;2.85;;
25913;SDS011;13718;50.922;5.346;2023-07-24T11:45:08;3.70;;;2.72;;
25913;SDS011;13718;50.922;5.346;2023-07-24T11:47:47;5.75;;;2.65;;
25913;SDS011;13718;50.922;5.346;2023-07-24T11:50:14;6.47;;;2.80;;
25913;SDS011;13718;50.922;5.346;2023-07-24T11:52:44;4.07;;;2.58;;
25913;SDS011;13718;50.922;5.346;2023-07-24T11:55:16;4.57;;;2.60;;
25913;SDS011;13718;50.922;5.346;2023-07-24T11:57:43;6.00;;;2.60;;
25913;SDS011;13718;50.922;5.346;2023-07-24T12:00:20;4.70;;;2.70;;
25913;SDS011;13718;50.922;5.346;2023-07-24T12:02:47;3.38;;;2.53;;
25913;SDS011;13718;50.922;5.346;2023-07-24T12:05:13;4.78;;;2.53;;
25913;SDS011;13718;50.922;5.346;2023-07-24T12:07:38;6.43;;;2.67;;
25913;SDS011;13718;50.922;5.346;2023-07-24T12:10:05;5.30;;;3.00;;
25913;SDS011;13718;50.922;5.346;2023-07-24T12:12:42;5.63;;;2.85;;
25913;SDS011;13718;50.922;5.346;2023-07-24T12:15:09;4.97;;;2.55;;
25913;SDS011;13718;50.922;5.346;2023-07-24T12:17:36;4.05;;;2.40;;
25913;SDS011;13718;50.922;5.346;2023-07-24T12:20:02;6.32;;;2.75;;
25913;SDS011;13718;50.922;5.346;2023-07-24T12:22:30;7.22;;;2.90;;
25913;SDS011;13718;50.922;5.346;2023-07-24T12:25:00;6.18;;;3.00;;
25913;SDS011;13718;50.922;5.346;2023-07-24T12:27:26;3.47;;;2.38;;
25913;SDS011;13718;50.922;5.346;2023-07-24T12:29:51;6.13;;;2.25;;
25913;SDS011;13718;50.922;5.346;2023-07-24T12:32:17;5.90;;;3.17;;
25913;SDS011;13718;50.922;5.346;2023-07-24T12:34:43;7.13;;;2.97;;
25913;SDS011;13718;50.922;5.346;2023-07-24T12:37:11;4.95;;;2.28;;
25913;SDS011;13718;50.922;5.346;2023-07-24T12:39:36;5.07;;;2.47;;
25913;SDS011;13718;50.922;5.346;2023-07-24T12:42:02;4.53;;;2.28;;
25913;SDS011;13718;50.922;5.346;2023-07-24T12:44:28;3.78;;;2.20;;
25913;SDS011;13718;50.922;5.346;2023-07-24T12:46:53;5.57;;;2.58;;
25913;SDS011;13718;50.922;5.346;2023-07-24T12:49:19;5.07;;;2.10;;
25913;SDS011;13718;50.922;5.346;2023-07-24T12:51:44;2.95;;;2.20;;
25913;SDS011;13718;50.922;5.346;2023-07-24T12:54:10;4.72;;;2.80;;
25913;SDS011;13718;50.922;5.346;2023-07-24T12:56:35;6.60;;;2.92;;
25913;SDS011;13718;50.922;5.346;2023-07-24T12:59:01;6.15;;;3.10;;
25913;SDS011;13718;50.922;5.346;2023-07-24T13:01:27;7.85;;;3.80;;
25913;SDS011;13718;50.922;5.346;2023-07-24T13:03:53;5.65;;;3.75;;
25913;SDS011;13718;50.922;5.346;2023-07-24T13:06:19;7.80;;;3.80;;
25913;SDS011;13718;50.922;5.346;2023-07-24T13:08:45;8.80;;;3.90;;
25913;SDS011;13718;50.922;5.346;2023-07-24T13:11:10;5.80;;;3.38;;
25913;SDS011;13718;50.922;5.346;2023-07-24T13:13:36;6.60;;;3.95;;
25913;SDS011;13718;50.922;5.346;2023-07-24T13:16:02;7.88;;;3.50;;
25913;SDS011;13718;50.922;5.346;2023-07-24T13:18:27;5.85;;;3.22;;
25913;SDS011;13718;50.922;5.346;2023-07-24T13:20:54;7.82;;;3.70;;
25913;SDS011;13718;50.922;5.346;2023-07-24T13:23:19;5.88;;;3.75;;
25913;SDS011;13718;50.922;5.346;2023-07-24T13:25:45;5.22;;;3.38;;
25913;SDS011;13718;50.922;5.346;2023-07-24T13:28:10;5.75;;;3.70;;
25913;SDS011;13718;50.922;5.346;2023-07-24T13:30:36;7.75;;;3.45;;
25913;SDS011;13718;50.922;5.346;2023-07-24T13:33:01;5.70;;;3.88;;
25913;SDS011;13718;50.922;5.346;2023-07-24T13:35:27;4.82;;;3.20;;
25913;SDS011;13718;50.922;5.346;2023-07-24T13:37:52;6.32;;;3.40;;
25913;SDS011;13718;50.922;5.346;2023-07-24T13:40:18;5.13;;;3.45;;
25913;SDS011;13718;50.922;5.346;2023-07-24T13:42:43;7.07;;;3.58;;
25913;SDS011;13718;50.922;5.346;2023-07-24T13:45:09;5.72;;;3.40;;
25913;SDS011;13718;50.922;5.346;2023-07-24T13:47:35;4.78;;;3.00;;
25913;SDS011;13718;50.922;5.346;2023-07-24T13:50:00;4.22;;;3.20;;
25913;SDS011;13718;50.922;5.346;2023-07-24T13:52:28;5.47;;;3.30;;
25913;SDS011;13718;50.922;5.346;2023-07-24T13:54:54;5.75;;;3.42;;
25913;SDS011;13718;50.922;5.346;2023-07-24T13:57:20;4.93;;;3.20;;
25913;SDS011;13718;50.922;5.346;2023-07-24T13:59:46;7.97;;;4.00;;
25913;SDS011;13718;50.922;5.346;2023-07-24T14:02:12;6.15;;;3.35;;
25913;SDS011;13718;50.922;5.346;2023-07-24T14:04:38;5.57;;;3.45;;
25913;SDS011;13718;50.922;5.346;2023-07-24T14:07:03;6.55;;;3.70;;
25913;SDS011;13718;50.922;5.346;2023-07-24T14:09:29;8.90;;;3.60;;
25913;SDS011;13718;50.922;5.346;2023-07-24T14:11:56;7.80;;;4.05;;
25913;SDS011;13718;50.922;5.346;2023-07-24T14:14:21;9.90;;;3.88;;
25913;SDS011;13718;50.922;5.346;2023-07-24T14:16:48;7.05;;;4.25;;
25913;SDS011;13718;50.922;5.346;2023-07-24T14:19:14;6.38;;;3.92;;
25913;SDS011;13718;50.922;5.346;2023-07-24T14:21:40;4.97;;;3.60;;
25913;SDS011;13718;50.922;5.346;2023-07-24T14:24:06;7.20;;;3.90;;
25913;SDS011;13718;50.922;5.346;2023-07-24T14:26:31;6.53;;;3.78;;
25913;SDS011;13718;50.922;5.346;2023-07-24T14:28:57;6.45;;;3.58;;
25913;SDS011;13718;50.922;5.346;2023-07-24T14:31:23;8.55;;;4.40;;
25913;SDS011;13718;50.922;5.346;2023-07-24T14:33:49;9.65;;;4.13;;
25913;SDS011;13718;50.922;5.346;2023-07-24T14:36:15;10.98;;;4.22;;
25913;SDS011;13718;50.922;5.346;2023-07-24T14:38:40;7.13;;;4.07;;
25913;SDS011;13718;50.922;5.346;2023-07-24T14:41:06;4.40;;;3.10;;
25913;SDS011;13718;50.922;5.346;2023-07-24T14:43:31;6.00;;;3.90;;